Time;durP1;ratioP1;P1;durP2;ratioP2;P2;SDS_P1;SDS_P2;PMS_P1;PMS_P2;Temp;Humidity;BMP_temperature;BMP_pressure;BME280_temperature;BME280_humidity;BME280_pressure;Samples;Min_cycle;Max_cycle;Signal;HPM_P1;HPM_P2
2023/02/16 00:03:24;;;;;;;36.15;19.60;;;5.60;99.90;;;;;;5104531;22;20075;-79
2023/02/16 00:05:50;;;;;;;30.85;18.23;;;5.70;99.90;;;;;;5018939;28;20037;-84
2023/02/16 00:08:18;;;;;;;37.33;19.90;;;5.60;99.90;;;;;;5020900;28;20116;-78
2023/02/16 00:13:43;;;;;;;23.45;14.88;;;5.50;99.90;;;;;;4997532;28;20037;-79
2023/02/16 00:13:46;;;;;;;28.23;17.37;;;5.40;99.90;;;;;;5036383;28;20036;-79
2023/02/16 00:16:18;;;;;;;32.08;18.20;;;5.50;99.90;;;;;;5025592;28;20068;-79
2023/02/16 00:18:44;;;;;;;34.67;19.15;;;5.50;99.90;;;;;;5040959;28;20093;-78
2023/02/16 00:21:10;;;;;;;26.70;15.02;;;5.30;99.90;;;;;;5005158;28;20123;-80
2023/02/16 00:23:35;;;;;;;29.23;16.63;;;5.60;99.90;;;;;;5025152;28;20435;-79
2023/02/16 00:26:02;;;;;;;32.65;16.45;;;5.40;99.90;;;;;;5014081;28;20048;-78
2023/02/16 00:28:28;;;;;;;35.28;19.95;;;5.40;99.90;;;;;;5018251;28;20479;-78
2023/02/16 00:30:53;;;;;;;38.35;20.20;;;5.40;99.90;;;;;;5018812;28;20036;-79
2023/02/16 00:33:20;;;;;;;32.72;18.23;;;5.20;99.90;;;;;;5013111;28;20171;-78
2023/02/16 00:35:45;;;;;;;37.47;20.83;;;5.10;99.90;;;;;;5015928;28;20424;-79
2023/02/16 00:38:12;;;;;;;35.10;18.27;;;5.30;99.90;;;;;;5028392;28;20099;-78
2023/02/16 00:40:37;;;;;;;28.65;15.90;;;5.20;99.90;;;;;;5017854;28;20032;-78
2023/02/16 00:43:03;;;;;;;36.45;18.50;;;5.20;99.90;;;;;;5013038;28;20036;-79
2023/02/16 00:45:29;;;;;;;29.25;17.15;;;5.30;99.90;;;;;;5032199;28;20032;-80
2023/02/16 00:47:54;;;;;;;29.13;15.77;;;5.40;99.90;;;;;;5050939;28;20615;-78
2023/02/16 00:50:25;;;;;;;31.05;14.82;;;5.50;99.90;;;;;;5012963;28;20044;-79
2023/02/16 00:52:50;;;;;;;27.73;12.80;;;5.60;99.90;;;;;;5035496;28;20117;-79
2023/02/16 00:55:18;;;;;;;27.25;15.05;;;5.50;99.90;;;;;;5032399;28;20074;-78
2023/02/16 00:58:17;;;;;;;29.00;15.35;;;5.50;99.90;;;;;;5013526;28;20134;-79
2023/02/16 01:00:47;;;;;;;34.58;17.42;;;5.80;99.90;;;;;;5016492;28;20440;-79
2023/02/16 01:03:18;;;;;;;30.77;16.45;;;5.70;99.90;;;;;;5014287;28;20037;-80
2023/02/16 01:05:43;;;;;;;27.80;15.13;;;5.70;99.90;;;;;;5022597;28;20044;-78
2023/02/16 01:13:28;;;;;;;33.75;16.98;;;5.60;99.90;;;;;;5040258;28;20028;-79
2023/02/16 01:15:54;;;;;;;32.50;18.02;;;5.60;99.90;;;;;;5033008;28;20543;-78
2023/02/16 01:18:20;;;;;;;35.22;19.80;;;5.60;99.90;;;;;;5026856;28;20049;-79
2023/02/16 01:20:46;;;;;;;31.48;15.00;;;5.50;99.90;;;;;;5037900;28;20021;-78
2023/02/16 01:23:11;;;;;;;28.25;17.02;;;5.40;99.90;;;;;;5046504;28;20098;-77
2023/02/16 01:25:37;;;;;;;38.13;20.42;;;5.50;99.90;;;;;;5031723;28;20071;-79
2023/02/16 01:28:03;;;;;;;38.35;20.35;;;5.50;99.90;;;;;;5034309;28;20029;-80
2023/02/16 01:30:28;;;;;;;29.17;17.00;;;5.50;99.90;;;;;;5034855;28;20044;-80
2023/02/16 01:32:54;;;;;;;31.88;16.63;;;5.40;99.90;;;;;;5029097;28;20411;-78
2023/02/16 01:35:27;;;;;;;31.27;14.35;;;5.50;99.90;;;;;;5050538;28;20033;-80
2023/02/16 01:37:52;;;;;;;33.13;17.02;;;5.40;99.90;;;;;;5028758;28;20029;-77
2023/02/16 01:40:41;;;;;;;28.38;16.42;;;5.30;99.90;;;;;;5028697;28;20041;-79
2023/02/16 01:43:22;;;;;;;26.23;15.40;;;5.40;99.90;;;;;;5029408;28;20551;-77
2023/02/16 01:46:18;;;;;;;31.25;16.70;;;5.50;99.90;;;;;;5036116;28;20039;-77
2023/02/16 01:48:44;;;;;;;38.38;19.63;;;5.50;99.90;;;;;;5042955;28;20550;-77
2023/02/16 01:51:23;;;;;;;31.92;17.55;;;5.40;99.90;;;;;;5046195;28;20032;-77
2023/02/16 01:53:53;;;;;;;32.30;16.13;;;5.40;99.90;;;;;;5026302;28;20087;-77
2023/02/16 01:56:36;;;;;;;25.98;15.40;;;5.40;99.90;;;;;;5022349;28;20395;-78
2023/02/16 01:59:21;;;;;;;31.65;17.20;;;5.30;99.90;;;;;;5027960;28;20024;-78
2023/02/16 02:01:54;;;;;;;33.60;18.73;;;5.30;99.90;;;;;;5000534;28;20499;-78
2023/02/16 02:07:14;;;;;;;32.40;18.83;;;5.20;99.90;;;;;;5035230;28;20102;-77
2023/02/16 02:09:43;;;;;;;26.70;14.40;;;5.20;99.90;;;;;;5040156;28;20074;-77
2023/02/16 02:12:32;;;;;;;34.78;18.63;;;5.10;99.90;;;;;;5026365;28;20496;-77
2023/02/16 02:14:58;;;;;;;32.60;16.42;;;5.20;99.90;;;;;;5018255;28;20037;-77
2023/02/16 02:17:24;;;;;;;26.50;12.82;;;5.10;99.90;;;;;;5035531;28;20041;-78
2023/02/16 02:19:54;;;;;;;29.02;15.90;;;5.20;99.90;;;;;;5029429;28;20060;-78
2023/02/16 02:25:41;;;;;;;32.92;16.77;;;5.30;99.90;;;;;;5039173;28;20047;-78
2023/02/16 02:28:26;;;;;;;28.70;15.90;;;5.30;99.90;;;;;;5041753;28;20602;-78
2023/02/16 02:31:03;;;;;;;30.15;15.77;;;5.40;99.90;;;;;;5039560;28;20461;-79
2023/02/16 02:33:40;;;;;;;26.45;14.57;;;5.40;99.90;;;;;;5007520;28;20029;-78
2023/02/16 02:36:26;;;;;;;31.10;17.63;;;5.40;99.90;;;;;;5037924;28;20391;-78
2023/02/16 02:39:20;;;;;;;37.90;18.30;;;5.40;99.90;;;;;;5048812;28;20021;-78
2023/02/16 02:42:04;;;;;;;27.08;14.82;;;5.20;99.90;;;;;;5021363;28;20017;-77
2023/02/16 02:44:38;;;;;;;30.17;15.82;;;5.20;99.90;;;;;;5037573;28;20040;-79
2023/02/16 02:47:04;;;;;;;34.17;15.50;;;5.30;99.90;;;;;;5026205;28;20400;-79
2023/02/16 02:49:29;;;;;;;29.80;16.45;;;5.20;99.90;;;;;;5018056;28;20029;-79
2023/02/16 02:51:55;;;;;;;36.83;21.05;;;5.20;99.90;;;;;;5021865;28;20029;-80
2023/02/16 03:03:01;;;;;;;28.65;15.68;;;4.70;99.90;;;;;;5041685;28;20056;-78
2023/02/16 03:05:28;;;;;;;28.15;15.38;;;4.90;99.90;;;;;;5014485;28;20040;-80
2023/02/16 03:07:56;;;;;;;37.53;20.42;;;5.00;99.90;;;;;;5004593;28;20036;-79
2023/02/16 03:13:25;;;;;;;32.53;18.75;;;4.50;99.90;;;;;;5037393;28;20869;-78
2023/02/16 03:15:54;;;;;;;38.25;20.50;;;4.60;99.90;;;;;;5036659;28;20480;-78
2023/02/16 03:29:23;;;;;;;27.63;14.73;;;4.60;99.90;;;;;;5037723;28;20059;-80
2023/02/16 03:31:51;;;;;;;39.40;19.15;;;4.80;99.90;;;;;;5030827;28;20476;-79
2023/02/16 03:34:17;;;;;;;37.53;20.13;;;4.70;99.90;;;;;;5050917;28;20120;-79
2023/02/16 03:36:45;;;;;;;38.42;20.98;;;4.80;99.90;;;;;;5032142;28;20037;-78
2023/02/16 03:39:11;;;;;;;32.78;17.95;;;4.40;99.90;;;;;;5046509;28;20040;-78
2023/02/16 03:41:50;;;;;;;39.80;20.50;;;4.50;99.90;;;;;;5039696;28;20033;-79
2023/02/16 03:44:16;;;;;;;35.83;19.50;;;4.40;99.90;;;;;;5031427;28;20395;-79
2023/02/16 03:46:42;;;;;;;34.28;18.45;;;4.30;99.90;;;;;;5038307;28;20033;-80
2023/02/16 03:49:07;;;;;;;27.60;15.98;;;4.40;99.90;;;;;;5033820;28;20040;-79
2023/02/16 03:51:33;;;;;;;38.80;18.05;;;4.40;99.90;;;;;;5049234;28;20036;-78
2023/02/16 03:53:58;;;;;;;33.50;17.00;;;4.50;99.90;;;;;;5047201;28;20030;-79
2023/02/16 03:56:24;;;;;;;32.00;17.98;;;4.30;99.90;;;;;;5049898;28;20036;-81
2023/02/16 03:58:49;;;;;;;35.92;19.02;;;4.40;99.90;;;;;;5041439;28;20032;-79
2023/02/16 04:01:15;;;;;;;38.22;20.73;;;4.40;99.90;;;;;;5030993;28;20457;-78
2023/02/16 04:03:41;;;;;;;39.97;21.25;;;4.20;99.90;;;;;;5030676;28;20056;-79
2023/02/16 04:06:06;;;;;;;42.05;21.33;;;4.20;99.90;;;;;;5031813;28;20120;-79
2023/02/16 04:08:32;;;;;;;42.05;19.08;;;4.10;99.90;;;;;;5046801;28;20044;-78
2023/02/16 04:10:59;;;;;;;40.75;22.38;;;3.90;99.90;;;;;;5034637;28;20029;-79
2023/02/16 04:13:24;;;;;;;37.92;21.17;;;3.90;99.90;;;;;;5033624;28;20074;-78
2023/02/16 04:15:50;;;;;;;37.38;20.50;;;3.90;99.90;;;;;;5030927;28;20028;-79
2023/02/16 04:18:16;;;;;;;32.42;18.35;;;4.10;99.90;;;;;;5046482;28;20603;-80
2023/02/16 04:20:41;;;;;;;38.47;19.85;;;4.20;99.90;;;;;;5045344;28;20025;-80
2023/02/16 04:23:07;;;;;;;45.53;20.60;;;4.10;99.90;;;;;;5028882;28;20029;-79
2023/02/16 04:25:33;;;;;;;38.47;21.27;;;4.00;99.90;;;;;;5028256;28;20025;-78
2023/02/16 04:27:59;;;;;;;37.17;20.55;;;4.10;99.90;;;;;;5036743;28;20085;-79
2023/02/16 04:30:26;;;;;;;35.10;19.58;;;4.20;99.90;;;;;;5012491;28;21441;-79
2023/02/16 04:32:52;;;;;;;38.30;17.38;;;4.30;99.90;;;;;;5017693;28;20052;-79
2023/02/16 04:35:18;;;;;;;29.58;14.57;;;4.30;99.90;;;;;;5014164;28;20041;-77
2023/02/16 04:37:43;;;;;;;40.50;21.33;;;4.30;99.90;;;;;;5022241;28;20107;-78
2023/02/16 04:40:12;;;;;;;37.45;20.23;;;4.30;99.90;;;;;;5020974;28;20373;-79
2023/02/16 04:42:38;;;;;;;36.00;18.10;;;4.20;99.90;;;;;;5011774;28;20029;-78
2023/02/16 04:45:04;;;;;;;40.53;21.60;;;4.10;99.90;;;;;;5013690;28;20664;-78
2023/02/16 04:47:30;;;;;;;39.53;21.52;;;4.10;99.90;;;;;;5021109;28;20036;-78
2023/02/16 04:49:56;;;;;;;41.35;22.40;;;4.00;99.90;;;;;;5019576;28;20398;-79
2023/02/16 04:52:21;;;;;;;38.58;20.55;;;3.90;99.90;;;;;;5015379;28;20409;-79
2023/02/16 04:54:47;;;;;;;38.95;20.92;;;3.90;99.90;;;;;;5017485;28;20029;-78
2023/02/16 04:57:13;;;;;;;39.40;21.27;;;3.90;99.90;;;;;;5023981;28;20138;-79
2023/02/16 04:59:38;;;;;;;47.13;22.88;;;3.80;99.90;;;;;;5025939;28;20037;-79
2023/02/16 05:02:04;;;;;;;31.27;15.30;;;3.80;99.90;;;;;;5041229;28;20039;-79
2023/02/16 05:04:29;;;;;;;35.83;20.40;;;3.90;99.90;;;;;;5006183;28;20059;-79
2023/02/16 05:06:55;;;;;;;36.10;18.55;;;4.10;99.90;;;;;;5027570;28;20033;-78
2023/02/16 05:09:20;;;;;;;34.60;19.30;;;4.10;99.90;;;;;;5033455;28;20083;-79
2023/02/16 05:14:40;;;;;;;37.92;20.63;;;4.40;99.90;;;;;;5041243;28;20629;-77
2023/02/16 05:17:22;;;;;;;34.85;20.15;;;4.40;99.90;;;;;;5030853;28;20392;-78
2023/02/16 05:19:52;;;;;;;33.30;17.60;;;4.30;99.90;;;;;;5040837;28;20036;-79
2023/02/16 05:22:18;;;;;;;34.00;17.65;;;4.40;99.90;;;;;;5028095;28;20033;-78
2023/02/16 05:24:44;;;;;;;33.33;16.90;;;4.40;99.90;;;;;;5010435;28;20515;-77
2023/02/16 05:27:15;;;;;;;32.55;17.10;;;4.40;99.90;;;;;;4998029;28;20112;-78
2023/02/16 05:29:40;;;;;;;31.50;16.80;;;4.50;99.90;;;;;;5036820;28;20106;-76
2023/02/16 05:32:06;;;;;;;34.47;16.83;;;4.60;99.90;;;;;;5023416;28;20074;-77
2023/02/16 05:34:31;;;;;;;35.35;18.13;;;4.60;99.90;;;;;;5021274;28;20029;-77
2023/02/16 05:36:57;;;;;;;32.63;16.80;;;4.50;99.90;;;;;;5041334;28;20033;-78
2023/02/16 05:39:23;;;;;;;39.33;20.35;;;4.40;99.90;;;;;;5016803;28;20065;-78
2023/02/16 05:41:48;;;;;;;35.67;18.20;;;4.30;99.90;;;;;;5035465;28;20059;-78
2023/02/16 05:44:16;;;;;;;29.55;16.27;;;4.50;99.90;;;;;;5023721;28;20044;-77
2023/02/16 05:46:42;;;;;;;31.80;17.60;;;4.50;99.90;;;;;;5027688;28;20036;-77
2023/02/16 05:49:07;;;;;;;35.17;17.02;;;4.40;99.90;;;;;;5026378;28;20032;-78
2023/02/16 05:51:33;;;;;;;43.17;21.63;;;4.30;99.90;;;;;;5029804;28;20102;-78
2023/02/16 05:53:59;;;;;;;31.10;17.00;;;4.30;99.90;;;;;;5022051;28;20478;-77
2023/02/16 05:56:24;;;;;;;45.80;21.83;;;4.30;99.90;;;;;;5034033;28;20037;-80
2023/02/16 05:58:51;;;;;;;35.45;18.23;;;4.20;99.90;;;;;;5027231;28;20035;-81
2023/02/16 06:01:16;;;;;;;34.78;19.90;;;4.20;99.90;;;;;;5037382;28;20033;-80
2023/02/16 06:03:42;;;;;;;33.17;18.95;;;4.30;99.90;;;;;;5038446;28;20331;-78
2023/02/16 06:06:08;;;;;;;41.00;20.60;;;4.30;99.90;;;;;;5023023;28;20103;-78
2023/02/16 06:08:34;;;;;;;41.65;21.27;;;4.20;99.90;;;;;;5020947;28;20477;-77
2023/02/16 06:10:59;;;;;;;35.70;21.50;;;4.10;99.90;;;;;;5028270;28;20056;-78
2023/02/16 06:13:25;;;;;;;38.65;21.10;;;3.90;99.90;;;;;;5036447;28;20384;-78
2023/02/16 06:15:54;;;;;;;41.15;21.88;;;3.80;99.90;;;;;;5033314;28;20485;-78
2023/02/16 06:18:21;;;;;;;38.70;21.10;;;3.80;99.90;;;;;;5053899;28;20032;-77
2023/02/16 06:20:46;;;;;;;37.45;20.30;;;3.90;99.90;;;;;;5051128;28;20438;-78
2023/02/16 06:23:12;;;;;;;40.58;21.27;;;3.90;99.90;;;;;;5036585;28;20032;-77
2023/02/16 06:25:41;;;;;;;38.17;21.48;;;4.00;99.90;;;;;;5040492;28;20051;-79
2023/02/16 06:28:06;;;;;;;37.58;21.48;;;4.10;99.90;;;;;;5035123;28;20032;-77
2023/02/16 06:30:34;;;;;;;36.53;20.92;;;3.90;99.90;;;;;;5028248;28;20405;-78
2023/02/16 06:33:00;;;;;;;34.92;20.45;;;4.00;99.90;;;;;;5052496;28;20044;-79
2023/02/16 06:35:27;;;;;;;26.38;15.57;;;4.30;99.90;;;;;;5034459;28;20033;-77
2023/02/16 06:37:52;;;;;;;34.97;17.80;;;4.20;99.90;;;;;;5028721;28;20563;-78
2023/02/16 06:40:18;;;;;;;41.42;20.75;;;4.20;99.90;;;;;;5027779;28;20064;-78
2023/02/16 06:42:44;;;;;;;43.10;22.75;;;4.20;99.90;;;;;;5052136;28;20068;-78
2023/02/16 06:45:09;;;;;;;43.75;21.60;;;4.10;99.90;;;;;;5050148;28;20492;-78
2023/02/16 06:47:35;;;;;;;37.60;21.25;;;4.10;99.90;;;;;;5050133;28;20021;-77
2023/02/16 06:50:01;;;;;;;39.45;20.92;;;4.10;99.90;;;;;;5053417;28;20037;-80
2023/02/16 06:52:27;;;;;;;37.28;21.63;;;4.10;99.90;;;;;;5034298;28;20037;-78
2023/02/16 06:54:52;;;;;;;34.83;19.15;;;4.10;99.90;;;;;;5040099;28;20119;-78
2023/02/16 06:57:18;;;;;;;38.67;21.75;;;4.20;99.90;;;;;;5049041;28;20128;-79
2023/02/16 06:59:44;;;;;;;42.20;21.13;;;4.30;99.90;;;;;;5051716;28;20480;-78
2023/02/16 07:02:09;;;;;;;38.65;20.77;;;4.40;99.90;;;;;;5035737;28;20112;-78
2023/02/16 07:04:36;;;;;;;37.53;20.17;;;4.50;99.90;;;;;;5051314;28;20037;-79
2023/02/16 07:07:02;;;;;;;35.65;20.92;;;4.50;99.90;;;;;;5048737;28;20088;-78
2023/02/16 07:09:27;;;;;;;39.40;19.83;;;4.70;99.90;;;;;;5035559;28;20052;-78
2023/02/16 07:11:54;;;;;;;39.75;20.92;;;4.80;99.90;;;;;;5036837;28;20029;-78
2023/02/16 07:14:20;;;;;;;37.00;17.88;;;4.80;99.90;;;;;;5033931;28;20052;-79
2023/02/16 07:16:45;;;;;;;36.90;19.63;;;4.80;99.90;;;;;;5037926;28;20028;-79
2023/02/16 07:19:11;;;;;;;25.67;14.82;;;4.90;99.90;;;;;;5056914;28;20060;-78
2023/02/16 07:21:37;;;;;;;36.13;18.35;;;4.90;99.90;;;;;;5018942;28;20041;-78
2023/02/16 07:24:02;;;;;;;37.85;20.20;;;4.90;99.90;;;;;;5054260;28;20032;-79
2023/02/16 07:26:28;;;;;;;31.70;17.60;;;5.00;99.90;;;;;;5032578;28;20123;-79
2023/02/16 07:28:53;;;;;;;32.25;18.67;;;5.10;99.90;;;;;;5031669;28;20025;-78
2023/02/16 07:31:19;;;;;;;31.17;16.05;;;5.10;99.90;;;;;;5035902;28;20116;-79
2023/02/16 07:33:45;;;;;;;31.67;16.27;;;5.20;99.90;;;;;;5039848;28;20029;-79
2023/02/16 07:36:11;;;;;;;28.67;15.05;;;5.30;99.90;;;;;;5035289;28;20040;-79
2023/02/16 07:38:40;;;;;;;36.08;17.92;;;5.30;99.90;;;;;;5033086;28;20040;-78
2023/02/16 07:41:06;;;;;;;28.73;14.68;;;5.40;99.90;;;;;;5035794;28;20025;-79
2023/02/16 07:43:33;;;;;;;34.25;18.52;;;5.40;99.90;;;;;;5035257;28;20037;-79
2023/02/16 07:46:01;;;;;;;32.38;17.48;;;5.50;99.90;;;;;;5040362;28;20510;-79
2023/02/16 07:48:26;;;;;;;32.08;16.60;;;5.50;99.90;;;;;;5057186;28;20377;-79
2023/02/16 07:50:54;;;;;;;31.17;17.17;;;5.70;99.90;;;;;;5047399;28;20028;-79
2023/02/16 07:53:20;;;;;;;26.83;15.48;;;5.60;99.90;;;;;;5043011;28;20039;-79
2023/02/16 07:55:45;;;;;;;29.60;16.02;;;5.70;99.90;;;;;;5025474;28;20387;-79
2023/02/16 07:58:26;;;;;;;25.35;11.35;;;5.70;99.90;;;;;;5019340;28;20511;-78
2023/02/16 08:00:54;;;;;;;41.40;20.25;;;5.70;99.90;;;;;;5048166;28;20546;-78
2023/02/16 08:03:19;;;;;;;33.60;16.98;;;5.80;99.90;;;;;;5049688;28;20454;-78
2023/02/16 08:05:47;;;;;;;28.40;16.38;;;5.80;99.90;;;;;;5039101;28;20037;-79
2023/02/16 08:08:13;;;;;;;28.08;15.35;;;5.80;99.90;;;;;;5051836;28;20040;-78
2023/02/16 08:10:38;;;;;;;30.67;15.52;;;5.90;99.90;;;;;;5033264;28;20128;-77
2023/02/16 08:13:04;;;;;;;33.65;17.42;;;6.00;99.90;;;;;;5032917;28;20041;-80
2023/02/16 08:15:30;;;;;;;32.92;17.92;;;6.10;99.90;;;;;;5052962;28;20429;-79
2023/02/16 08:17:56;;;;;;;30.60;17.00;;;6.10;99.90;;;;;;5031093;28;20884;-78
2023/02/16 08:20:24;;;;;;;32.63;15.38;;;6.20;99.90;;;;;;5047887;28;20055;-77
2023/02/16 08:22:52;;;;;;;28.17;15.35;;;6.20;99.90;;;;;;5043898;28;20041;-78
2023/02/16 08:25:18;;;;;;;27.42;15.18;;;6.30;99.90;;;;;;5010612;28;20061;-79
2023/02/16 08:27:44;;;;;;;35.28;17.45;;;6.40;99.90;;;;;;5037767;28;20675;-79
2023/02/16 08:30:11;;;;;;;31.65;16.25;;;6.40;99.90;;;;;;5037631;28;20107;-77
2023/02/16 08:32:42;;;;;;;35.72;17.83;;;6.50;99.90;;;;;;5032265;28;20164;-77
2023/02/16 08:35:08;;;;;;;33.35;18.25;;;6.60;99.90;;;;;;5018429;28;20025;-77
2023/02/16 08:37:36;;;;;;;32.22;16.42;;;6.60;99.90;;;;;;5038204;28;20062;-78
2023/02/16 08:40:03;;;;;;;35.50;17.55;;;6.70;99.90;;;;;;5046180;28;20021;-76
2023/02/16 08:42:30;;;;;;;29.88;15.73;;;6.70;99.90;;;;;;4345662;28;10000497;-77
2023/02/16 08:44:55;;;;;;;28.85;16.45;;;6.80;99.90;;;;;;5045570;28;20485;-77
2023/02/16 08:47:23;;;;;;;32.40;18.02;;;6.80;99.90;;;;;;5044659;28;20037;-80
2023/02/16 08:49:48;;;;;;;31.48;17.55;;;6.80;99.90;;;;;;5030665;28;20456;-79
2023/02/16 08:52:14;;;;;;;27.08;14.48;;;6.90;99.90;;;;;;5047289;28;20073;-79
2023/02/16 08:54:41;;;;;;;27.17;15.80;;;7.00;99.90;;;;;;5045340;28;20029;-79
2023/02/16 08:57:07;;;;;;;33.22;16.77;;;7.00;99.90;;;;;;5046729;28;20044;-78
2023/02/16 08:59:33;;;;;;;34.70;18.42;;;7.10;99.90;;;;;;5031305;28;20037;-78
2023/02/16 09:01:59;;;;;;;34.78;16.52;;;7.20;99.90;;;;;;5047133;28;20029;-79
2023/02/16 09:04:26;;;;;;;33.95;16.90;;;7.30;99.90;;;;;;5031485;28;20059;-77
2023/02/16 09:06:52;;;;;;;30.25;15.65;;;7.40;99.90;;;;;;5047508;28;20115;-78
2023/02/16 09:09:18;;;;;;;29.88;16.27;;;7.60;99.90;;;;;;5016382;28;20125;-79
2023/02/16 09:11:44;;;;;;;32.08;18.10;;;7.70;99.90;;;;;;5035357;28;20451;-79
2023/02/16 09:14:10;;;;;;;28.20;15.27;;;7.80;99.90;;;;;;5018901;28;20415;-78
2023/02/16 09:16:38;;;;;;;28.83;16.30;;;7.90;99.90;;;;;;5032234;28;20037;-79
2023/02/16 09:19:04;;;;;;;28.38;14.75;;;8.00;99.90;;;;;;5051101;28;20037;-79
2023/02/16 09:21:33;;;;;;;26.30;14.60;;;8.10;99.90;;;;;;5009464;28;20032;-79
2023/02/16 09:24:02;;;;;;;24.40;13.98;;;8.20;99.90;;;;;;5029198;28;20035;-79
2023/02/16 09:26:30;;;;;;;29.25;14.88;;;8.40;99.90;;;;;;5047498;28;20115;-79
2023/02/16 09:28:56;;;;;;;24.52;13.90;;;8.70;99.90;;;;;;5043769;28;20033;-79
2023/02/16 09:31:27;;;;;;;26.77;16.02;;;8.70;99.90;;;;;;5026230;28;20035;-79
2023/02/16 09:33:57;;;;;;;29.25;16.88;;;8.90;99.90;;;;;;5011828;28;20044;-79
2023/02/16 09:36:22;;;;;;;32.20;18.17;;;9.10;99.90;;;;;;5019999;28;20061;-80
2023/02/16 09:38:50;;;;;;;24.15;14.15;;;9.10;99.90;;;;;;5022409;28;20336;-80
2023/02/16 09:41:29;;;;;;;34.25;17.63;;;9.30;99.90;;;;;;5016584;28;20832;-81
2023/02/16 09:44:08;;;;;;;20.90;10.02;;;9.30;99.90;;;;;;5044492;28;20034;-81
2023/02/16 09:46:34;;;;;;;24.58;14.98;;;9.50;99.90;;;;;;5047162;28;20759;-80
2023/02/16 09:49:01;;;;;;;25.40;14.85;;;9.50;99.90;;;;;;5032714;28;20023;-79
2023/02/16 09:51:35;;;;;;;16.67;10.07;;;9.60;99.90;;;;;;5030711;28;20036;-80
2023/02/16 09:54:25;;;;;;;21.73;12.60;;;9.80;99.90;;;;;;5028609;28;20029;-79
2023/02/16 09:56:57;;;;;;;22.35;12.25;;;9.90;99.90;;;;;;5021490;28;20033;-82
2023/02/16 09:59:37;;;;;;;22.83;13.55;;;9.90;99.90;;;;;;5030523;28;20070;-81
2023/02/16 10:02:33;;;;;;;24.40;11.60;;;9.90;99.90;;;;;;5047885;28;20021;-80
2023/02/16 10:05:19;;;;;;;23.48;14.43;;;9.90;99.90;;;;;;5031298;28;20544;-80
2023/02/16 10:08:00;;;;;;;15.48;8.82;;;9.90;99.90;;;;;;5042367;28;20418;-81
2023/02/16 10:10:59;;;;;;;18.35;8.85;;;9.90;99.90;;;;;;5045621;28;20075;-81
2023/02/16 10:13:39;;;;;;;21.70;11.85;;;9.80;99.90;;;;;;4695696;28;10000453;-81
2023/02/16 10:16:05;;;;;;;20.38;10.40;;;9.90;99.90;;;;;;5035538;28;20043;-81
2023/02/16 10:18:39;;;;;;;26.80;13.15;;;9.90;99.90;;;;;;5053283;28;20529;-80
2023/02/16 10:21:08;;;;;;;19.33;9.23;;;9.90;99.90;;;;;;5051249;28;20518;-82
2023/02/16 10:23:54;;;;;;;22.77;11.05;;;9.90;99.90;;;;;;5054716;28;20037;-82
2023/02/16 10:26:23;;;;;;;27.45;11.98;;;9.80;99.90;;;;;;5032170;28;20036;-81
2023/02/16 10:28:54;;;;;;;21.02;12.38;;;9.80;99.90;;;;;;5050742;28;20043;-84
2023/02/16 10:31:24;;;;;;;20.85;10.43;;;9.80;99.90;;;;;;5061276;28;20485;-83
2023/02/16 10:34:13;;;;;;;23.38;14.02;;;9.70;99.90;;;;;;5037764;28;20032;-84
2023/02/16 10:36:52;;;;;;;19.35;10.90;;;9.80;99.90;;;;;;5063834;28;20025;-85
2023/02/16 10:39:37;;;;;;;17.33;10.02;;;9.50;99.90;;;;;;5026137;28;20030;-83
2023/02/16 10:42:17;;;;;;;25.42;14.52;;;9.70;99.90;;;;;;5057404;28;20025;-84
2023/02/16 10:45:20;;;;;;;16.45;8.60;;;9.60;99.90;;;;;;5052861;28;20064;-86
2023/02/16 10:47:47;;;;;;;16.25;6.72;;;9.60;99.90;;;;;;4973291;28;20021;-85
2023/02/16 10:50:41;;;;;;;17.65;9.05;;;9.70;99.90;;;;;;5039499;28;20021;-88
2023/02/16 10:53:22;;;;;;;29.50;16.73;;;9.70;99.90;;;;;;5040105;28;20033;-87
2023/02/16 10:55:48;;;;;;;18.58;10.23;;;9.70;99.90;;;;;;5058484;28;20111;-87
2023/02/16 10:58:19;;;;;;;20.20;11.82;;;9.80;99.90;;;;;;5037513;28;20221;-86
2023/02/16 11:01:10;;;;;;;24.30;14.02;;;9.80;99.90;;;;;;5046240;28;20145;-88
2023/02/16 11:03:39;;;;;;;21.63;13.40;;;9.90;99.90;;;;;;5027929;28;20029;-87
2023/02/16 11:06:24;;;;;;;24.52;13.88;;;9.80;99.90;;;;;;5056952;28;20048;-85
2023/02/16 11:08:55;;;;;;;17.73;9.07;;;9.90;99.90;;;;;;5042191;28;20033;-86
2023/02/16 11:11:21;;;;;;;24.70;15.35;;;9.80;99.90;;;;;;5044276;28;20025;-86
2023/02/16 11:13:48;;;;;;;26.75;14.40;;;9.80;99.90;;;;;;5039234;28;20029;-86
2023/02/16 11:16:21;;;;;;;30.13;15.85;;;10.00;99.90;;;;;;5039664;28;20033;-85
2023/02/16 11:18:57;;;;;;;16.77;9.88;;;10.10;99.90;;;;;;5031578;28;20064;-85
2023/02/16 11:21:45;;;;;;;19.27;10.32;;;10.10;99.90;;;;;;5057653;28;20035;-84
2023/02/16 11:24:26;;;;;;;19.40;9.35;;;10.10;99.90;;;;;;5022418;28;20044;-86
2023/02/16 11:27:11;;;;;;;15.35;7.90;;;10.20;99.90;;;;;;5040146;28;20028;-90
2023/02/16 11:29:37;;;;;;;26.73;16.08;;;10.40;99.90;;;;;;5057203;28;20449;-86
2023/02/16 11:32:09;;;;;;;20.13;11.90;;;10.40;99.90;;;;;;5055611;28;20048;-87
2023/02/16 11:34:57;;;;;;;22.45;14.80;;;10.50;99.90;;;;;;5045064;28;20033;-87
2023/02/16 11:37:30;;;;;;;26.00;15.98;;;10.70;99.90;;;;;;5041232;28;20044;-86
2023/02/16 11:39:59;;;;;;;21.73;11.48;;;10.70;99.90;;;;;;5024944;28;20037;-85
2023/02/16 11:42:35;;;;;;;21.17;11.85;;;10.60;99.90;;;;;;5034434;28;20037;-85
2023/02/16 11:45:01;;;;;;;17.75;10.07;;;10.70;99.90;;;;;;5022379;28;20041;-86
2023/02/16 11:47:36;;;;;;;31.80;15.10;;;10.70;99.90;;;;;;5022241;28;20048;-86
2023/02/16 11:50:16;;;;;;;25.95;12.68;;;10.60;99.90;;;;;;5019375;28;20040;-85
2023/02/16 11:52:48;;;;;;;17.95;8.02;;;10.70;99.90;;;;;;5029935;28;20072;-86
2023/02/16 11:55:32;;;;;;;20.40;11.43;;;10.60;99.90;;;;;;5040687;28;20087;-87
2023/02/16 11:58:21;;;;;;;21.42;11.18;;;10.60;99.90;;;;;;5012285;28;20045;-87
2023/02/16 12:00:56;;;;;;;29.00;16.85;;;10.40;99.90;;;;;;5020696;28;20041;-88
2023/02/16 12:03:55;;;;;;;29.97;17.93;;;10.50;99.90;;;;;;5021020;28;20165;-89
2023/02/16 12:06:39;;;;;;;26.05;17.08;;;10.50;99.90;;;;;;5028706;28;20271;-88
2023/02/16 12:09:27;;;;;;;14.57;6.45;;;10.40;99.90;;;;;;5053985;28;20040;-85
2023/02/16 12:12:16;;;;;;;27.80;16.55;;;10.30;99.90;;;;;;5019141;28;20032;-86
2023/02/16 12:15:21;;;;;;;30.10;14.77;;;10.20;99.90;;;;;;5013608;28;20053;-86
2023/02/16 12:18:24;;;;;;;27.67;13.35;;;10.20;99.90;;;;;;5014430;28;20049;-86
2023/02/16 12:20:50;;;;;;;26.38;16.02;;;10.10;99.90;;;;;;5029323;28;20485;-82
2023/02/16 12:23:19;;;;;;;26.30;14.63;;;10.10;99.90;;;;;;5036731;28;20041;-82
2023/02/16 12:25:50;;;;;;;28.20;15.98;;;10.10;99.90;;;;;;5032772;28;20036;-83
2023/02/16 12:28:48;;;;;;;27.67;16.92;;;10.10;99.90;;;;;;5037965;28;20056;-84
2023/02/16 12:31:35;;;;;;;28.75;16.92;;;10.10;99.90;;;;;;5047201;28;20389;-84
2023/02/16 12:34:25;;;;;;;31.77;18.80;;;10.00;99.90;;;;;;5041142;28;20087;-84
2023/02/16 12:37:09;;;;;;;28.02;16.92;;;10.00;99.90;;;;;;5023011;28;20050;-84
2023/02/16 12:39:59;;;;;;;14.80;8.25;;;10.00;99.90;;;;;;5012219;28;20501;-84
2023/02/16 12:42:59;;;;;;;25.35;12.55;;;9.90;99.90;;;;;;5034628;28;20076;-85
2023/02/16 12:45:26;;;;;;;30.23;16.88;;;10.00;99.90;;;;;;5041493;28;20039;-86
2023/02/16 12:47:58;;;;;;;40.97;19.98;;;10.10;99.90;;;;;;5046765;28;20028;-85
2023/02/16 12:50:29;;;;;;;28.92;16.13;;;10.00;99.90;;;;;;5007096;28;21156;-86
2023/02/16 12:53:11;;;;;;;21.70;12.68;;;10.00;99.90;;;;;;5016385;28;20523;-86
2023/02/16 12:55:49;;;;;;;27.05;16.80;;;10.10;99.90;;;;;;5031980;28;20029;-84
2023/02/16 12:58:15;;;;;;;29.73;17.02;;;10.10;99.90;;;;;;5032100;28;20571;-87
2023/02/16 13:00:48;;;;;;;31.35;17.75;;;10.20;99.90;;;;;;5047715;28;20038;-86
2023/02/16 13:03:29;;;;;;;31.13;16.88;;;10.30;99.90;;;;;;5049814;28;20093;-86
2023/02/16 13:06:16;;;;;;;28.95;16.83;;;10.50;99.90;;;;;;5032168;28;20123;-85
2023/02/16 13:08:55;;;;;;;25.42;12.23;;;10.30;99.90;;;;;;5024782;28;20170;-86
2023/02/16 13:11:39;;;;;;;29.27;18.10;;;10.60;99.90;;;;;;5033071;28;20041;-87
2023/02/16 13:14:27;;;;;;;30.45;16.75;;;10.60;99.90;;;;;;5038253;28;20034;-85
2023/02/16 13:17:25;;;;;;;27.70;17.17;;;10.80;99.90;;;;;;5025709;28;20026;-86
2023/02/16 13:19:56;;;;;;;25.80;14.65;;;10.70;99.90;;;;;;5023584;28;20037;-84
2023/02/16 13:22:43;;;;;;;30.40;16.73;;;10.90;99.90;;;;;;5032301;28;20041;-86
2023/02/16 13:25:28;;;;;;;18.67;8.73;;;10.90;99.90;;;;;;5045775;28;20069;-87
2023/02/16 13:28:23;;;;;;;31.67;18.30;;;11.00;99.90;;;;;;5041553;28;20057;-87
2023/02/16 13:31:14;;;;;;;27.80;15.68;;;11.00;99.90;;;;;;5033532;28;20028;-86
2023/02/16 13:34:03;;;;;;;31.83;18.50;;;11.00;99.90;;;;;;5012621;28;20286;-86
2023/02/16 13:37:11;;;;;;;28.98;15.88;;;11.30;99.90;;;;;;5057610;28;20484;-85